createdAt,value
2023-03-06T00:00:09.951Z,10.93
2023-03-06T00:01:17.340Z,9.57
2023-03-06T00:02:20.543Z,13.63
2023-03-06T00:03:23.758Z,13.07
2023-03-06T00:04:26.752Z,10.88
2023-03-06T00:05:29.402Z,9.80
2023-03-06T00:06:32.620Z,11.30
2023-03-06T00:07:36.106Z,11.40
2023-03-06T00:08:39.163Z,11.93
2023-03-06T00:09:41.217Z,10.73
2023-03-06T00:10:44.550Z,9.77
2023-03-06T00:11:46.634Z,14.30
2023-03-06T00:12:51.894Z,11.73
2023-03-06T00:13:54.000Z,9.90
2023-03-06T00:14:56.971Z,17.07
2023-03-06T00:16:00.652Z,16.13
2023-03-06T00:17:04.012Z,13.43
2023-03-06T00:18:07.175Z,12.07
2023-03-06T00:19:10.354Z,13.43
2023-03-06T00:20:13.825Z,11.43
2023-03-06T00:21:17.021Z,10.73
2023-03-06T00:22:19.235Z,11.73
2023-03-06T00:23:23.986Z,12.83
2023-03-06T00:24:28.382Z,10.38
2023-03-06T00:25:31.597Z,12.13
2023-03-06T00:26:33.939Z,9.88
2023-03-06T00:27:36.960Z,12.38
2023-03-06T00:28:39.031Z,11.98
2023-03-06T00:29:42.254Z,11.57
2023-03-06T00:30:45.963Z,14.70
2023-03-06T00:31:49.080Z,10.68
2023-03-06T00:32:52.583Z,10.60
2023-03-06T00:33:55.575Z,11.15
2023-03-06T00:34:57.857Z,10.52
2023-03-06T00:36:00.896Z,15.63
2023-03-06T00:37:03.148Z,11.17
2023-03-06T00:38:06.329Z,12.40
2023-03-06T00:39:09.785Z,13.37
2023-03-06T00:40:15.523Z,10.97
2023-03-06T00:41:17.637Z,10.30
2023-03-06T00:42:21.285Z,11.07
2023-03-06T00:43:23.289Z,9.57
2023-03-06T00:44:26.404Z,8.55
2023-03-06T00:45:28.522Z,9.68
2023-03-06T00:46:31.593Z,11.88
2023-03-06T00:47:33.770Z,13.00
2023-03-06T00:48:36.829Z,9.88
2023-03-06T00:49:39.135Z,12.17
2023-03-06T00:50:42.121Z,11.48
2023-03-06T00:51:44.228Z,9.20
2023-03-06T00:52:47.255Z,10.53
2023-03-06T00:53:49.302Z,10.07
2023-03-06T00:54:53.650Z,9.53
2023-03-06T00:55:55.740Z,11.87
2023-03-06T00:56:58.828Z,14.80
2023-03-06T00:58:01.007Z,9.53
2023-03-06T00:59:04.428Z,9.97
2023-03-06T01:00:08.643Z,11.13
2023-03-06T01:01:11.783Z,12.27
2023-03-06T01:02:14.094Z,12.50
2023-03-06T01:03:17.404Z,8.87
2023-03-06T01:04:19.834Z,10.80
2023-03-06T01:05:24.813Z,10.87
2023-03-06T01:06:27.012Z,8.77
2023-03-06T01:07:33.348Z,14.17
2023-03-06T01:08:35.408Z,13.90
2023-03-06T01:09:38.397Z,13.43
2023-03-06T01:10:41.903Z,15.77
2023-03-06T01:11:45.520Z,15.13
2023-03-06T01:12:47.704Z,14.13
2023-03-06T01:13:50.857Z,14.37
2023-03-06T01:14:52.930Z,10.63
2023-03-06T01:15:56.153Z,19.00
2023-03-06T01:16:58.225Z,13.13
2023-03-06T01:18:01.298Z,12.13
2023-03-06T01:19:03.521Z,12.95
2023-03-06T01:20:07.796Z,12.80
2023-03-06T01:21:10.020Z,12.60
2023-03-06T01:22:12.994Z,13.20
2023-03-06T01:23:15.015Z,13.43
2023-03-06T01:24:18.056Z,10.00
2023-03-06T01:25:20.110Z,13.13
2023-03-06T01:26:24.721Z,11.43
2023-03-06T01:27:27.164Z,9.20
2023-03-06T01:28:30.805Z,11.60
2023-03-06T01:29:32.876Z,10.43
2023-03-06T01:30:35.829Z,10.87
2023-03-06T01:31:38.049Z,9.80
2023-03-06T01:32:41.257Z,11.73
2023-03-06T01:33:43.458Z,9.37
2023-03-06T01:34:46.453Z,10.40
2023-03-06T01:35:48.636Z,9.07
2023-03-06T01:36:51.730Z,12.13
2023-03-06T01:37:53.749Z,10.47
2023-03-06T01:38:56.791Z,9.70
2023-03-06T01:39:58.879Z,9.87
2023-03-06T01:41:03.507Z,10.70
2023-03-06T01:42:07.546Z,16.63
2023-03-06T01:43:12.351Z,9.90
2023-03-06T01:44:14.501Z,10.90
2023-03-06T01:45:54.885Z,11.55
2023-03-06T01:46:58.037Z,10.90
2023-03-06T01:48:00.080Z,12.60
2023-03-06T01:49:08.264Z,10.03
2023-03-06T01:50:11.849Z,8.73
2023-03-06T01:51:15.593Z,10.05
2023-03-06T01:52:21.342Z,10.70
2023-03-06T01:53:24.414Z,12.25
2023-03-06T01:54:28.880Z,10.60
2023-03-06T01:55:35.408Z,11.32
2023-03-06T01:56:39.194Z,16.73
2023-03-06T01:57:46.320Z,10.33
2023-03-06T01:58:49.686Z,12.43
2023-03-06T01:59:56.898Z,10.20
2023-03-06T02:00:59.783Z,10.85
2023-03-06T02:02:04.010Z,12.65
2023-03-06T02:03:09.422Z,10.20
2023-03-06T02:04:14.160Z,12.00
2023-03-06T02:05:16.215Z,11.35
2023-03-06T02:06:21.798Z,10.93
2023-03-06T02:07:24.979Z,11.80
2023-03-06T02:08:28.926Z,12.02
2023-03-06T02:09:32.786Z,10.20
2023-03-06T02:10:36.242Z,9.57
2023-03-06T02:11:38.733Z,8.27
2023-03-06T02:12:45.963Z,10.80
2023-03-06T02:13:49.617Z,11.52
2023-03-06T02:14:54.636Z,13.93
2023-03-06T02:15:56.811Z,10.85
2023-03-06T02:17:00.235Z,10.63
2023-03-06T02:18:02.432Z,11.30
2023-03-06T02:19:09.905Z,11.60
2023-03-06T02:20:17.049Z,9.45
2023-03-06T02:21:26.146Z,13.40
2023-03-06T02:22:36.470Z,10.30
2023-03-06T02:23:49.016Z,12.37
2023-03-06T02:24:59.403Z,9.97
2023-03-06T02:26:03.619Z,14.35
2023-03-06T02:27:09.037Z,12.37
2023-03-06T02:28:13.550Z,13.43
2023-03-06T02:29:23.723Z,11.57
2023-03-06T02:30:27.395Z,11.33
2023-03-06T02:31:32.933Z,14.80
2023-03-06T02:32:35.278Z,12.00
2023-03-06T02:33:38.836Z,11.05
2023-03-06T02:34:53.951Z,11.05
2023-03-06T02:35:58.767Z,14.30
2023-03-06T02:37:04.692Z,14.63
2023-03-06T02:38:12.385Z,13.97
2023-03-06T02:39:16.889Z,11.80
2023-03-06T02:40:21.809Z,13.87
2023-03-06T02:41:26.258Z,14.97
2023-03-06T02:42:30.643Z,13.13
2023-03-06T02:43:36.913Z,14.77
2023-03-06T02:44:39.985Z,10.40
2023-03-06T02:45:45.876Z,12.45
2023-03-06T02:46:48.917Z,11.75
2023-03-06T02:47:51.778Z,12.77
2023-03-06T02:48:54.784Z,9.95
2023-03-06T02:49:57.193Z,13.83
2023-03-06T02:51:00.165Z,13.83
2023-03-06T02:52:02.248Z,10.57
2023-03-06T02:53:05.782Z,14.83
2023-03-06T02:54:07.832Z,11.40
2023-03-06T02:55:11.023Z,13.68
2023-03-06T02:56:13.252Z,12.05
2023-03-06T02:57:19.240Z,12.18
2023-03-06T02:58:21.648Z,17.23
2023-03-06T02:59:24.815Z,14.60
2023-03-06T03:00:27.334Z,15.00
2023-03-06T03:01:30.445Z,16.00
2023-03-06T03:02:32.751Z,14.75
2023-03-06T03:03:35.921Z,15.73
2023-03-06T03:04:38.068Z,12.32
2023-03-06T03:05:42.026Z,10.48
2023-03-06T03:06:54.689Z,13.30
2023-03-06T03:07:57.824Z,11.60
2023-03-06T03:09:00.164Z,12.75
2023-03-06T03:10:04.767Z,15.00
2023-03-06T03:11:09.176Z,14.23
2023-03-06T03:12:15.778Z,14.13
2023-03-06T03:13:19.866Z,13.07
2023-03-06T03:14:25.906Z,13.03
2023-03-06T03:15:28.318Z,13.47
2023-03-06T03:16:31.288Z,13.35
2023-03-06T03:17:35.774Z,13.10
2023-03-06T03:18:38.883Z,12.32
2023-03-06T03:19:41.319Z,15.38
2023-03-06T03:20:44.509Z,12.87
2023-03-06T03:21:47.199Z,13.33
2023-03-06T03:22:51.209Z,14.93
2023-03-06T03:23:53.217Z,12.97
2023-03-06T03:24:56.215Z,14.73
2023-03-06T03:26:06.789Z,12.03
2023-03-06T03:27:10.057Z,12.60
2023-03-06T03:28:12.162Z,13.95
2023-03-06T03:29:17.278Z,11.43
2023-03-06T03:30:19.615Z,13.43
2023-03-06T03:31:22.836Z,13.43
2023-03-06T03:32:26.066Z,13.33
2023-03-06T03:33:29.118Z,16.00
2023-03-06T03:34:31.406Z,12.60
2023-03-06T03:35:34.871Z,11.63
2023-03-06T03:36:36.933Z,11.57
2023-03-06T03:37:39.955Z,14.63
2023-03-06T03:38:42.225Z,14.50
2023-03-06T03:39:45.803Z,13.60
2023-03-06T03:40:47.826Z,15.68
2023-03-06T03:41:50.948Z,15.77
2023-03-06T03:42:53.189Z,14.97
2023-03-06T03:43:56.684Z,14.52
2023-03-06T03:45:00.700Z,14.97
2023-03-06T03:46:05.974Z,14.43
2023-03-06T03:47:08.207Z,13.37
2023-03-06T03:48:12.420Z,13.45
2023-03-06T03:49:14.909Z,14.83
2023-03-06T03:50:19.843Z,14.43
2023-03-06T03:51:22.466Z,13.57
2023-03-06T03:52:29.368Z,18.53
2023-03-06T03:53:31.444Z,14.63
2023-03-06T03:54:34.563Z,14.93
2023-03-06T03:55:36.994Z,18.50
2023-03-06T03:56:41.766Z,14.07
2023-03-06T03:57:50.120Z,13.90
2023-03-06T03:58:53.996Z,13.10
2023-03-06T03:59:56.783Z,15.13
2023-03-06T04:01:06.252Z,14.75
2023-03-06T04:02:08.440Z,13.03
2023-03-06T04:03:18.262Z,14.50
2023-03-06T04:04:21.557Z,16.17
2023-03-06T04:05:25.230Z,15.53
2023-03-06T04:06:28.029Z,17.53
2023-03-06T04:07:31.180Z,16.10
2023-03-06T04:08:35.050Z,16.60
2023-03-06T04:09:38.212Z,15.95
2023-03-06T04:10:40.554Z,14.73
2023-03-06T04:11:45.038Z,13.55
2023-03-06T04:12:47.192Z,15.57
2023-03-06T04:13:50.490Z,14.50
2023-03-06T04:14:53.436Z,19.90
2023-03-06T04:15:57.299Z,19.07
2023-03-06T04:17:00.781Z,13.57
2023-03-06T04:18:03.798Z,14.13
2023-03-06T04:19:06.055Z,15.33
2023-03-06T04:20:10.580Z,13.77
2023-03-06T04:21:12.954Z,13.27
2023-03-06T04:22:16.402Z,14.90
2023-03-06T04:23:19.238Z,17.17
2023-03-06T04:24:22.802Z,15.82
2023-03-06T04:25:24.855Z,13.83
2023-03-06T04:26:28.047Z,14.93
2023-03-06T04:27:30.340Z,17.80
2023-03-06T04:28:33.343Z,20.25
2023-03-06T04:29:35.901Z,16.13
2023-03-06T04:30:39.286Z,17.47
2023-03-06T04:31:41.540Z,21.10
2023-03-06T04:32:46.207Z,19.37
2023-03-06T04:33:48.478Z,15.63
2023-03-06T04:34:51.757Z,19.67
2023-03-06T04:35:53.845Z,14.47
2023-03-06T04:37:02.639Z,16.37
2023-03-06T04:38:04.979Z,15.07
2023-03-06T04:39:08.241Z,17.90
2023-03-06T04:40:17.669Z,15.80
2023-03-06T04:41:20.826Z,18.40
2023-03-06T04:42:23.315Z,24.57
2023-03-06T04:43:26.353Z,17.50
2023-03-06T04:44:28.373Z,17.53
2023-03-06T04:45:33.265Z,17.67
2023-03-06T04:46:35.775Z,20.43
2023-03-06T04:47:38.760Z,19.00
2023-03-06T04:48:43.964Z,19.57
2023-03-06T04:49:46.023Z,22.40
2023-03-06T04:50:48.997Z,19.52
2023-03-06T04:51:51.071Z,20.87
2023-03-06T04:52:54.180Z,18.83
2023-03-06T04:53:56.623Z,20.20
2023-03-06T04:54:59.798Z,21.67
2023-03-06T04:56:01.919Z,25.55
2023-03-06T04:57:06.291Z,20.37
2023-03-06T04:58:08.333Z,22.63
2023-03-06T04:59:11.458Z,23.57
2023-03-06T05:00:16.224Z,21.25
2023-03-06T05:01:19.487Z,20.80
2023-03-06T05:02:22.130Z,24.10
2023-03-06T05:03:25.118Z,25.33
2023-03-06T05:04:28.501Z,21.00
2023-03-06T05:05:31.691Z,18.97
2023-03-06T05:06:33.852Z,25.08
2023-03-06T05:07:37.258Z,25.65
2023-03-06T05:08:39.401Z,20.60
2023-03-06T05:09:42.392Z,21.20
2023-03-06T05:10:44.941Z,25.93
2023-03-06T05:11:48.163Z,21.30
2023-03-06T05:12:51.170Z,25.40
2023-03-06T05:13:53.223Z,21.63
2023-03-06T05:14:56.423Z,21.93
2023-03-06T05:16:02.454Z,22.40
2023-03-06T05:17:05.780Z,19.58
2023-03-06T05:18:07.794Z,25.20
2023-03-06T05:19:10.898Z,20.47
2023-03-06T05:20:15.629Z,18.17
2023-03-06T05:21:19.051Z,16.75
2023-03-06T05:22:21.210Z,17.13
2023-03-06T05:23:24.213Z,22.70
2023-03-06T05:24:26.402Z,19.63
2023-03-06T05:25:29.664Z,22.58
2023-03-06T05:26:32.040Z,20.52
2023-03-06T05:27:35.659Z,15.10
2023-03-06T05:28:38.412Z,21.23
2023-03-06T05:29:41.608Z,17.98
2023-03-06T05:30:43.585Z,20.17
2023-03-06T05:31:46.795Z,25.33
2023-03-06T05:32:49.264Z,19.70
2023-03-06T05:33:52.294Z,19.77
2023-03-06T05:34:54.522Z,19.83
2023-03-06T05:35:59.080Z,15.97
2023-03-06T05:37:01.865Z,17.70
2023-03-06T05:38:05.119Z,17.13
2023-03-06T05:39:07.329Z,17.47
2023-03-06T05:40:12.043Z,17.07
2023-03-06T05:41:14.463Z,18.83
2023-03-06T05:42:18.367Z,18.40
2023-03-06T05:43:21.437Z,18.83
2023-03-06T05:44:23.925Z,20.02
2023-03-06T05:45:27.258Z,19.43
2023-03-06T05:46:29.337Z,18.70
2023-03-06T05:47:33.083Z,18.23
2023-03-06T05:48:37.501Z,20.83
2023-03-06T05:49:41.086Z,20.93
2023-03-06T05:50:43.178Z,20.73
2023-03-06T05:51:47.528Z,17.87
2023-03-06T05:52:50.984Z,20.77
2023-03-06T05:53:53.025Z,23.33
2023-03-06T05:54:56.078Z,23.40
2023-03-06T05:55:59.504Z,25.37
2023-03-06T05:57:04.251Z,21.87
2023-03-06T05:58:06.248Z,29.40
2023-03-06T05:59:09.284Z,21.70
2023-03-06T06:00:13.150Z,26.23
2023-03-06T06:01:18.499Z,26.07
2023-03-06T06:02:21.142Z,29.90
2023-03-06T06:03:24.810Z,26.80
2023-03-06T06:04:27.646Z,26.33
2023-03-06T06:05:30.812Z,28.07
2023-03-06T06:06:32.835Z,28.37
2023-03-06T06:07:37.209Z,30.07
2023-03-06T06:08:39.546Z,28.10
2023-03-06T06:09:43.475Z,25.40
2023-03-06T06:10:45.481Z,24.57
2023-03-06T06:11:48.544Z,24.83
2023-03-06T06:12:51.641Z,26.70
2023-03-06T06:13:53.670Z,26.10
2023-03-06T06:14:56.844Z,28.42
2023-03-06T06:15:59.014Z,24.87
2023-03-06T06:17:02.143Z,22.67
2023-03-06T06:18:04.430Z,23.90
2023-03-06T06:19:07.425Z,22.97
2023-03-06T06:20:11.791Z,28.37
2023-03-06T06:21:14.560Z,22.37
2023-03-06T06:22:17.812Z,26.63
2023-03-06T06:23:21.346Z,23.37
2023-03-06T06:24:26.703Z,21.60
2023-03-06T06:25:28.859Z,23.87
2023-03-06T06:26:31.856Z,20.17
2023-03-06T06:27:34.926Z,28.13
2023-03-06T06:28:37.120Z,21.67
2023-03-06T06:29:40.172Z,21.93
2023-03-06T06:30:42.186Z,26.10
2023-03-06T06:31:45.433Z,25.40
2023-03-06T06:32:48.606Z,25.20
2023-03-06T06:33:50.636Z,28.07
2023-03-06T06:34:53.652Z,20.37
2023-03-06T06:35:55.698Z,26.77
2023-03-06T06:36:58.828Z,26.13
2023-03-06T06:38:00.834Z,31.27
2023-03-06T06:39:05.537Z,23.47
2023-03-06T06:40:09.031Z,29.10
2023-03-06T06:41:36.070Z,24.97
2023-03-06T06:42:39.805Z,19.40
2023-03-06T06:43:42.325Z,23.13
2023-03-06T06:44:45.478Z,33.20
2023-03-06T06:45:49.594Z,22.75
2023-03-06T06:48:16.726Z,25.40
2023-03-06T06:49:20.759Z,21.93
2023-03-06T06:50:23.029Z,25.20
2023-03-06T06:51:26.055Z,23.97
2023-03-06T06:52:28.233Z,20.40
2023-03-06T06:53:31.648Z,24.33
2023-03-06T06:54:35.134Z,23.73
2023-03-06T06:55:38.871Z,23.47
2023-03-06T06:56:41.039Z,22.30
2023-03-06T06:57:44.577Z,22.60
2023-03-06T06:58:46.652Z,23.77
2023-03-06T06:59:52.305Z,29.00
2023-03-06T07:00:56.320Z,22.17
2023-03-06T07:01:58.329Z,29.83
2023-03-06T07:03:01.377Z,29.83
2023-03-06T07:04:03.595Z,23.13
2023-03-06T07:05:07.710Z,22.10
2023-03-06T07:06:11.474Z,26.10
2023-03-06T07:07:14.457Z,22.23
2023-03-06T07:08:17.511Z,34.17
2023-03-06T07:09:22.280Z,24.23
2023-03-06T07:10:26.869Z,19.30
2023-03-06T07:11:30.013Z,28.20
2023-03-06T07:12:32.953Z,21.97
2023-03-06T07:13:36.533Z,26.23
2023-03-06T07:14:39.417Z,24.37
2023-03-06T07:15:42.484Z,24.58
2023-03-06T07:16:44.640Z,25.37
2023-03-06T07:17:49.910Z,24.10
2023-03-06T07:18:52.224Z,23.57
2023-03-06T07:19:55.353Z,23.50
2023-03-06T07:21:01.228Z,23.13
2023-03-06T07:22:04.555Z,22.50
2023-03-06T07:23:09.493Z,23.37
2023-03-06T07:24:12.611Z,27.60
2023-03-06T07:25:14.662Z,24.60
2023-03-06T07:26:18.995Z,25.40
2023-03-06T07:27:23.681Z,26.37
2023-03-06T07:28:25.942Z,29.50
2023-03-06T07:29:29.258Z,27.47
2023-03-06T07:30:31.513Z,22.57
2023-03-06T07:31:34.547Z,23.20
2023-03-06T07:32:36.683Z,22.43
2023-03-06T07:33:39.804Z,27.07
2023-03-06T07:34:44.205Z,21.73
2023-03-06T07:35:46.367Z,20.90
2023-03-06T07:36:50.822Z,19.17
2023-03-06T07:37:53.486Z,21.30
2023-03-06T07:38:56.590Z,22.97
2023-03-06T07:39:58.898Z,25.57
2023-03-06T07:41:02.106Z,21.40
2023-03-06T07:42:07.496Z,19.43
2023-03-06T07:43:19.154Z,21.93
2023-03-06T07:44:32.747Z,18.83
2023-03-06T07:45:35.418Z,17.23
2023-03-06T07:46:38.477Z,21.07
2023-03-06T07:47:41.167Z,26.45
2023-03-06T07:48:44.523Z,19.07
2023-03-06T07:49:46.672Z,18.70
2023-03-06T07:50:56.804Z,21.43
2023-03-06T07:52:00.173Z,22.27
2023-03-06T07:53:02.253Z,18.43
2023-03-06T07:54:05.383Z,18.57
2023-03-06T07:55:08.207Z,16.43
2023-03-06T07:56:11.914Z,17.40
2023-03-06T07:57:15.414Z,18.30
2023-03-06T07:58:18.420Z,20.57
2023-03-06T07:59:21.377Z,20.57
2023-03-06T08:00:24.195Z,16.07
2023-03-06T08:01:27.846Z,17.67
2023-03-06T08:02:29.934Z,28.73
2023-03-06T08:03:33.815Z,20.47
2023-03-06T08:04:36.903Z,21.63
2023-03-06T08:05:39.386Z,22.67
2023-03-06T08:06:42.458Z,19.77
2023-03-06T08:07:45.164Z,15.10
2023-03-06T08:08:49.547Z,18.80
2023-03-06T08:09:52.118Z,15.07
2023-03-06T08:10:55.094Z,15.80
2023-03-06T08:11:57.281Z,17.63
2023-03-06T08:13:01.697Z,19.00
2023-03-06T08:14:04.941Z,23.73
2023-03-06T08:15:09.923Z,15.53
2023-03-06T08:16:13.337Z,17.90
2023-03-06T08:17:16.416Z,14.73
2023-03-06T08:18:18.941Z,16.70
2023-03-06T08:19:22.239Z,14.90
2023-03-06T08:20:25.282Z,16.27
2023-03-06T08:21:28.434Z,22.80
2023-03-06T08:22:31.418Z,15.73
2023-03-06T08:23:33.554Z,20.17
2023-03-06T08:24:36.592Z,32.30
2023-03-06T08:25:39.058Z,17.60
2023-03-06T08:26:42.129Z,20.03
2023-03-06T08:27:44.241Z,19.33
2023-03-06T08:28:48.645Z,17.40
2023-03-06T08:29:51.688Z,19.90
2023-03-06T08:30:54.669Z,15.30
2023-03-06T08:31:57.679Z,16.40
2023-03-06T08:33:01.346Z,15.83
2023-03-06T08:34:06.702Z,18.73
2023-03-06T08:35:10.276Z,15.67
2023-03-06T08:36:12.303Z,13.60
2023-03-06T08:37:15.331Z,18.90
2023-03-06T08:38:18.416Z,16.63
2023-03-06T08:39:23.606Z,16.57
2023-03-06T08:40:30.391Z,14.33
2023-03-06T08:41:33.314Z,14.43
2023-03-06T08:42:36.310Z,17.67
2023-03-06T08:43:39.347Z,13.43
2023-03-06T08:44:42.972Z,14.47
2023-03-06T08:45:46.002Z,19.07
2023-03-06T08:46:49.180Z,18.57
2023-03-06T08:47:51.263Z,16.40
2023-03-06T08:48:54.443Z,15.10
2023-03-06T08:50:00.463Z,15.20
2023-03-06T08:51:02.716Z,16.97
2023-03-06T08:52:06.173Z,14.80
2023-03-06T08:53:09.613Z,18.20
2023-03-06T08:54:12.945Z,15.50
2023-03-06T08:55:16.047Z,18.27
2023-03-06T08:56:19.631Z,23.10
2023-03-06T08:57:22.667Z,14.27
2023-03-06T08:58:25.795Z,15.40
2023-03-06T08:59:27.903Z,12.47
2023-03-06T09:00:32.489Z,15.70
2023-03-06T09:01:37.785Z,14.23
2023-03-06T09:02:40.518Z,14.17
2023-03-06T09:03:43.745Z,13.30
2023-03-06T09:04:46.876Z,15.90
2023-03-06T09:05:50.009Z,15.23
2023-03-06T09:06:54.583Z,12.10
2023-03-06T09:07:57.932Z,12.80
2023-03-06T09:09:01.768Z,12.93
2023-03-06T09:10:04.350Z,16.67
2023-03-06T09:11:08.988Z,13.77
2023-03-06T09:12:12.009Z,15.53
2023-03-06T09:13:14.465Z,15.53
2023-03-06T09:14:17.577Z,14.27
2023-03-06T09:15:21.119Z,14.43
2023-03-06T09:16:26.054Z,15.63
2023-03-06T09:17:29.896Z,16.93
2023-03-06T09:18:32.974Z,18.87
2023-03-06T09:19:36.025Z,13.90
2023-03-06T09:20:38.071Z,16.07
2023-03-06T09:21:41.116Z,14.57
2023-03-06T09:22:46.125Z,18.07
2023-03-06T09:23:49.390Z,12.10
2023-03-06T09:24:52.546Z,12.43
2023-03-06T09:25:55.456Z,12.37
2023-03-06T09:26:58.543Z,11.83
2023-03-06T09:28:10.961Z,12.47
2023-03-06T09:29:16.329Z,11.20
2023-03-06T09:30:19.068Z,13.67
2023-03-06T09:31:22.386Z,12.17
2023-03-06T09:32:26.428Z,10.30
2023-03-06T09:33:31.273Z,14.23
2023-03-06T09:34:34.385Z,11.63
2023-03-06T09:35:41.482Z,11.03
2023-03-06T09:36:56.436Z,12.07
2023-03-06T09:37:59.991Z,9.60
2023-03-06T09:39:02.976Z,10.57
2023-03-06T09:40:07.217Z,10.53
2023-03-06T09:41:23.046Z,11.43
2023-03-06T09:42:26.803Z,13.67
2023-03-06T09:43:32.118Z,10.60
2023-03-06T09:44:38.096Z,12.17
2023-03-06T09:45:40.118Z,10.07
2023-03-06T09:47:11.597Z,11.37
2023-03-06T09:48:17.764Z,10.03
2023-03-06T09:49:41.518Z,9.47
2023-03-06T09:50:50.255Z,9.17
2023-03-06T09:52:03.688Z,9.97
2023-03-06T09:53:19.502Z,11.63
2023-03-06T09:54:31.331Z,9.70
2023-03-06T09:55:38.071Z,8.27
2023-03-06T09:56:48.035Z,12.63
2023-03-06T09:57:56.516Z,8.20
2023-03-06T09:59:05.392Z,10.10
2023-03-06T10:00:14.900Z,10.83
2023-03-06T10:01:22.970Z,9.50
2023-03-06T10:02:33.801Z,11.13
2023-03-06T10:03:46.333Z,8.33
2023-03-06T10:04:53.280Z,9.23
2023-03-06T10:06:03.344Z,12.43
2023-03-06T10:07:13.140Z,13.73
2023-03-06T10:08:24.772Z,10.50
2023-03-06T10:09:31.072Z,10.70
2023-03-06T10:10:42.891Z,9.10
2023-03-06T10:11:49.710Z,11.40
2023-03-06T10:13:02.007Z,10.37
2023-03-06T10:14:17.322Z,10.40
2023-03-06T10:15:23.866Z,10.63
2023-03-06T10:16:30.466Z,13.67
2023-03-06T10:17:36.216Z,10.00
2023-03-06T10:18:41.036Z,9.33
2023-03-06T10:19:43.341Z,11.33
2023-03-06T10:20:53.968Z,8.47
2023-03-06T10:22:00.991Z,9.53
2023-03-06T10:23:26.447Z,9.87
2023-03-06T10:24:42.175Z,11.00
2023-03-06T10:25:50.259Z,10.93
2023-03-06T10:26:59.965Z,11.93
2023-03-06T10:28:11.119Z,10.17
2023-03-06T10:29:31.106Z,12.67
2023-03-06T10:30:41.953Z,10.77
2023-03-06T10:31:50.120Z,13.90
2023-03-06T10:32:58.426Z,9.13
2023-03-06T10:34:16.667Z,10.60
2023-03-06T10:35:23.190Z,12.80
2023-03-06T10:36:28.312Z,10.83
2023-03-06T10:37:31.664Z,12.47
2023-03-06T10:38:37.792Z,10.53
2023-03-06T10:39:39.937Z,13.47
2023-03-06T10:40:48.278Z,12.50
2023-03-06T10:41:51.631Z,12.77
2023-03-06T10:43:09.558Z,11.90
2023-03-06T10:44:22.314Z,13.13
2023-03-06T10:45:25.333Z,11.53
2023-03-06T10:46:29.950Z,11.93
2023-03-06T10:47:36.776Z,12.10
2023-03-06T10:48:42.252Z,13.07
2023-03-06T10:49:59.692Z,10.43
2023-03-06T10:51:19.030Z,12.47
2023-03-06T10:52:22.867Z,10.40
2023-03-06T10:53:29.032Z,9.33
2023-03-06T10:54:32.892Z,13.97
2023-03-06T10:55:37.829Z,10.67
2023-03-06T10:56:42.254Z,9.77
2023-03-06T10:57:45.253Z,9.57
2023-03-06T10:58:48.239Z,9.97
2023-03-06T10:59:53.553Z,9.47
2023-03-06T11:01:06.863Z,12.73
2023-03-06T11:02:25.523Z,9.90
2023-03-06T11:03:27.578Z,11.57
2023-03-06T11:04:32.352Z,11.33
2023-03-06T11:05:35.965Z,12.67
2023-03-06T11:06:39.707Z,11.03
2023-03-06T11:07:55.507Z,11.83
2023-03-06T11:09:15.673Z,9.70
2023-03-06T11:10:20.632Z,12.90
2023-03-06T11:11:36.764Z,12.83
2023-03-06T11:12:41.419Z,11.37
2023-03-06T11:13:45.596Z,12.97
2023-03-06T11:14:47.820Z,10.70
2023-03-06T11:15:58.248Z,10.10
2023-03-06T11:17:01.376Z,14.80
2023-03-06T11:18:20.070Z,13.00
2023-03-06T11:19:27.345Z,11.80
2023-03-06T11:20:50.130Z,10.13
2023-03-06T11:22:03.533Z,10.87
2023-03-06T11:23:12.180Z,9.80
2023-03-06T11:24:19.209Z,9.93
2023-03-06T11:25:27.210Z,9.93
2023-03-06T11:26:45.633Z,13.20
2023-03-06T11:27:55.664Z,12.17
2023-03-06T11:29:14.574Z,9.67
2023-03-06T11:30:20.160Z,10.07
2023-03-06T11:31:27.710Z,11.13
2023-03-06T11:32:33.734Z,10.00
2023-03-06T11:33:42.560Z,8.83
2023-03-06T11:34:50.775Z,9.10
2023-03-06T11:35:59.416Z,12.10
2023-03-06T11:37:08.331Z,10.50
2023-03-06T11:38:18.218Z,9.90
2023-03-06T11:39:27.919Z,11.13
2023-03-06T11:40:37.383Z,10.70
2023-03-06T11:41:51.123Z,8.70
2023-03-06T11:43:00.288Z,9.67
2023-03-06T11:44:13.571Z,9.93
2023-03-06T11:45:26.021Z,9.47
2023-03-06T11:46:34.401Z,8.73
2023-03-06T11:47:41.104Z,8.80
2023-03-06T11:48:50.547Z,8.90
2023-03-06T11:50:15.982Z,9.73
2023-03-06T11:51:23.380Z,9.13
2023-03-06T11:52:35.484Z,8.43
2023-03-06T11:53:40.522Z,9.17
2023-03-06T11:54:42.616Z,9.03
2023-03-06T11:55:52.471Z,8.03
2023-03-06T11:56:58.475Z,8.03
2023-03-06T11:58:18.304Z,7.50
2023-03-06T11:59:53.646Z,7.10
2023-03-06T12:01:00.916Z,10.27
2023-03-06T12:02:13.859Z,13.27
2023-03-06T12:03:48.647Z,10.57
2023-03-06T12:05:01.988Z,9.07
2023-03-06T12:06:10.734Z,9.57
2023-03-06T12:07:23.133Z,9.30
2023-03-06T12:08:40.897Z,7.83
2023-03-06T12:09:47.192Z,7.67
2023-03-06T12:10:53.339Z,8.43
2023-03-06T12:12:18.419Z,9.33
2023-03-06T12:13:37.548Z,7.03
2023-03-06T12:15:05.988Z,6.70
2023-03-06T12:16:29.033Z,6.77
2023-03-06T12:17:46.445Z,8.47
2023-03-06T12:18:58.508Z,7.70
2023-03-06T12:20:32.984Z,8.33
2023-03-06T12:21:47.674Z,6.67
2023-03-06T12:23:02.468Z,6.83
2023-03-06T12:24:30.351Z,8.47
2023-03-06T12:25:36.586Z,7.47
2023-03-06T12:27:05.043Z,6.83
2023-03-06T12:28:24.220Z,8.53
2023-03-06T12:29:51.301Z,7.70
2023-03-06T12:31:17.390Z,6.60
2023-03-06T12:32:36.641Z,10.43
2023-03-06T12:33:49.914Z,6.23
2023-03-06T12:35:06.066Z,6.67
2023-03-06T12:36:26.198Z,7.73
2023-03-06T12:37:40.488Z,6.93
2023-03-06T12:38:56.852Z,6.40
2023-03-06T12:40:32.926Z,9.23
2023-03-06T12:41:49.447Z,5.63
2023-03-06T12:43:20.690Z,5.83
2023-03-06T12:44:58.869Z,9.67
2023-03-06T12:46:10.346Z,5.90
2023-03-06T12:47:18.177Z,6.53
2023-03-06T12:48:26.333Z,9.23
2023-03-06T12:49:33.195Z,6.27
2023-03-06T12:50:36.986Z,5.60
2023-03-06T12:51:40.773Z,6.60
2023-03-06T12:52:43.852Z,6.57
2023-03-06T12:53:48.018Z,6.23
2023-03-06T12:54:50.408Z,6.30
2023-03-06T12:55:55.763Z,11.47
2023-03-06T12:56:59.672Z,12.60
2023-03-06T12:58:36.002Z,6.20
2023-03-06T12:59:44.188Z,6.97
2023-03-06T13:01:03.708Z,6.20
2023-03-06T13:02:39.071Z,6.33
2023-03-06T13:03:59.049Z,6.43
2023-03-06T13:05:22.105Z,6.43
2023-03-06T13:06:49.817Z,7.17
2023-03-06T13:08:14.429Z,6.30
2023-03-06T13:09:20.185Z,7.03
2023-03-06T13:10:27.452Z,6.93
2023-03-06T13:12:00.276Z,6.27
2023-03-06T13:13:05.243Z,8.23
2023-03-06T13:14:23.548Z,8.00
2023-03-06T13:15:45.840Z,7.03
2023-03-06T13:16:48.102Z,8.00
2023-03-06T13:17:51.261Z,7.33
2023-03-06T13:18:59.622Z,8.53
2023-03-06T13:20:26.789Z,7.57
2023-03-06T13:22:09.522Z,7.07
2023-03-06T13:23:51.545Z,7.53
2023-03-06T13:25:35.181Z,5.67
2023-03-06T13:27:11.585Z,9.03
2023-03-06T13:28:24.979Z,6.40
2023-03-06T13:30:06.262Z,6.37
2023-03-06T13:31:21.327Z,6.23
2023-03-06T13:32:33.561Z,6.53
2023-03-06T13:33:53.125Z,7.03
2023-03-06T13:34:55.212Z,6.60
2023-03-06T13:35:59.102Z,5.67
2023-03-06T13:37:35.690Z,5.50
2023-03-06T13:39:00.029Z,8.87
2023-03-06T13:40:25.752Z,5.87
2023-03-06T13:41:51.842Z,6.67
2023-03-06T13:43:13.159Z,5.93
2023-03-06T13:44:43.844Z,5.50
2023-03-06T13:45:48.924Z,7.27
2023-03-06T13:46:58.998Z,5.50
2023-03-06T13:49:26.982Z,9.13
2023-03-06T13:50:42.343Z,5.93
2023-03-06T13:52:01.388Z,5.80
2023-03-06T13:54:02.762Z,9.40
2023-03-06T13:55:14.440Z,5.77
2023-03-06T13:56:52.388Z,6.57
2023-03-06T13:58:11.749Z,6.77
2023-03-06T13:59:45.880Z,5.97
2023-03-06T14:01:08.092Z,7.27
2023-03-06T14:02:35.806Z,5.90
2023-03-06T14:04:13.658Z,10.70
2023-03-06T14:05:18.534Z,5.83
2023-03-06T14:06:50.205Z,6.50
2023-03-06T14:08:06.518Z,8.50
2023-03-06T14:09:19.470Z,7.30
2023-03-06T14:10:25.825Z,6.60
2023-03-06T14:11:29.033Z,6.23
2023-03-06T14:12:36.720Z,5.83
2023-03-06T14:13:50.632Z,8.60
2023-03-06T14:14:56.894Z,6.07
2023-03-06T14:16:00.006Z,10.63
2023-03-06T14:17:05.147Z,6.40
2023-03-06T14:18:19.249Z,5.80
2023-03-06T14:19:22.656Z,11.47
2023-03-06T14:20:34.096Z,7.40
2023-03-06T14:21:46.404Z,7.47
2023-03-06T14:22:49.424Z,5.70
2023-03-06T14:24:00.325Z,5.77
2023-03-06T14:25:08.505Z,6.83
2023-03-06T14:26:17.394Z,5.50
2023-03-06T14:27:19.690Z,6.23